sensor_id;sensor_type;location;lat;lon;timestamp;temperature;humidity
23305;DHT22;11821;51.456;8.844;2022-07-04T00:00:47;18.00;99.90
23305;DHT22;11821;51.456;8.844;2022-07-04T00:03:13;18.00;99.90
23305;DHT22;11821;51.456;8.844;2022-07-04T00:05:39;17.90;99.90
23305;DHT22;11821;51.456;8.844;2022-07-04T00:08:06;17.80;99.90
23305;DHT22;11821;51.456;8.844;2022-07-04T00:10:32;17.70;99.90
23305;DHT22;11821;51.456;8.844;2022-07-04T00:12:59;17.60;99.90
23305;DHT22;11821;51.456;8.844;2022-07-04T00:15:25;17.60;99.90
23305;DHT22;11821;51.456;8.844;2022-07-04T00:17:52;17.50;99.90
23305;DHT22;11821;51.456;8.844;2022-07-04T00:20:18;17.60;99.90
23305;DHT22;11821;51.456;8.844;2022-07-04T00:22:45;17.60;99.90
23305;DHT22;11821;51.456;8.844;2022-07-04T00:25:11;17.60;99.90
23305;DHT22;11821;51.456;8.844;2022-07-04T00:27:37;17.50;99.90
23305;DHT22;11821;51.456;8.844;2022-07-04T00:30:04;17.60;99.90
23305;DHT22;11821;51.456;8.844;2022-07-04T00:32:31;17.60;99.90
23305;DHT22;11821;51.456;8.844;2022-07-04T00:34:57;17.60;99.90
23305;DHT22;11821;51.456;8.844;2022-07-04T00:37:24;17.50;99.90
23305;DHT22;11821;51.456;8.844;2022-07-04T00:39:50;17.50;99.90
23305;DHT22;11821;51.456;8.844;2022-07-04T00:42:16;17.50;99.90
23305;DHT22;11821;51.456;8.844;2022-07-04T00:44:43;17.50;99.90
23305;DHT22;11821;51.456;8.844;2022-07-04T00:47:09;17.50;99.90
23305;DHT22;11821;51.456;8.844;2022-07-04T00:49:36;17.50;99.90
23305;DHT22;11821;51.456;8.844;2022-07-04T00:52:02;17.50;99.90
23305;DHT22;11821;51.456;8.844;2022-07-04T00:54:31;17.30;99.90
23305;DHT22;11821;51.456;8.844;2022-07-04T00:56:58;17.30;99.90
23305;DHT22;11821;51.456;8.844;2022-07-04T00:59:25;17.30;99.90
23305;DHT22;11821;51.456;8.844;2022-07-04T01:01:51;17.30;99.90
23305;DHT22;11821;51.456;8.844;2022-07-04T01:04:18;17.30;99.90
23305;DHT22;11821;51.456;8.844;2022-07-04T01:06:44;17.30;99.90
23305;DHT22;11821;51.456;8.844;2022-07-04T01:09:11;17.30;99.90
23305;DHT22;11821;51.456;8.844;2022-07-04T01:11:38;17.20;99.90
23305;DHT22;11821;51.456;8.844;2022-07-04T01:14:04;17.10;99.90
23305;DHT22;11821;51.456;8.844;2022-07-04T01:16:34;17.20;99.90
23305;DHT22;11821;51.456;8.844;2022-07-04T01:19:01;17.20;99.90
23305;DHT22;11821;51.456;8.844;2022-07-04T01:21:27;17.10;99.90
23305;DHT22;11821;51.456;8.844;2022-07-04T01:23:53;17.10;99.90
23305;DHT22;11821;51.456;8.844;2022-07-04T01:26:19;17.00;99.90
23305;DHT22;11821;51.456;8.844;2022-07-04T01:28:47;17.00;99.90
23305;DHT22;11821;51.456;8.844;2022-07-04T01:31:13;17.00;99.90
23305;DHT22;11821;51.456;8.844;2022-07-04T01:33:39;16.90;99.90
23305;DHT22;11821;51.456;8.844;2022-07-04T01:36:05;16.90;99.90
23305;DHT22;11821;51.456;8.844;2022-07-04T01:38:32;16.90;99.90
23305;DHT22;11821;51.456;8.844;2022-07-04T01:40:58;16.80;99.90
23305;DHT22;11821;51.456;8.844;2022-07-04T01:43:24;16.70;99.90
23305;DHT22;11821;51.456;8.844;2022-07-04T01:45:51;16.80;99.90
23305;DHT22;11821;51.456;8.844;2022-07-04T01:48:17;16.70;99.90
23305;DHT22;11821;51.456;8.844;2022-07-04T01:50:43;16.80;99.90
23305;DHT22;11821;51.456;8.844;2022-07-04T01:53:09;16.70;99.90
23305;DHT22;11821;51.456;8.844;2022-07-04T01:55:36;16.70;99.90
23305;DHT22;11821;51.456;8.844;2022-07-04T01:58:02;16.60;99.90
23305;DHT22;11821;51.456;8.844;2022-07-04T02:00:29;16.60;99.90
23305;DHT22;11821;51.456;8.844;2022-07-04T02:03:13;16.60;99.90
23305;DHT22;11821;51.456;8.844;2022-07-04T02:05:40;16.60;99.90
23305;DHT22;11821;51.456;8.844;2022-07-04T02:08:07;16.60;99.90
23305;DHT22;11821;51.456;8.844;2022-07-04T02:10:37;16.60;99.90
23305;DHT22;11821;51.456;8.844;2022-07-04T02:13:03;16.60;99.90
23305;DHT22;11821;51.456;8.844;2022-07-04T02:15:38;16.60;99.90
23305;DHT22;11821;51.456;8.844;2022-07-04T02:18:09;16.60;99.90
23305;DHT22;11821;51.456;8.844;2022-07-04T02:20:36;16.60;99.90
23305;DHT22;11821;51.456;8.844;2022-07-04T02:23:04;16.50;99.90
23305;DHT22;11821;51.456;8.844;2022-07-04T02:25:30;16.50;99.90
23305;DHT22;11821;51.456;8.844;2022-07-04T02:27:57;16.40;99.90
23305;DHT22;11821;51.456;8.844;2022-07-04T02:30:24;16.50;99.90
23305;DHT22;11821;51.456;8.844;2022-07-04T02:32:50;16.40;99.90
23305;DHT22;11821;51.456;8.844;2022-07-04T02:35:17;16.40;99.90
23305;DHT22;11821;51.456;8.844;2022-07-04T02:37:44;16.30;99.90
23305;DHT22;11821;51.456;8.844;2022-07-04T02:40:10;16.30;99.90
23305;DHT22;11821;51.456;8.844;2022-07-04T02:42:37;16.30;99.90
23305;DHT22;11821;51.456;8.844;2022-07-04T02:45:04;16.20;99.90
23305;DHT22;11821;51.456;8.844;2022-07-04T02:47:31;16.20;99.90
23305;DHT22;11821;51.456;8.844;2022-07-04T02:49:57;16.20;99.90
23305;DHT22;11821;51.456;8.844;2022-07-04T02:52:23;16.10;99.90
23305;DHT22;11821;51.456;8.844;2022-07-04T02:54:50;16.10;99.90
23305;DHT22;11821;51.456;8.844;2022-07-04T02:57:18;16.10;99.90
23305;DHT22;11821;51.456;8.844;2022-07-04T02:59:45;16.00;99.90
23305;DHT22;11821;51.456;8.844;2022-07-04T03:02:11;16.00;99.90
23305;DHT22;11821;51.456;8.844;2022-07-04T03:04:37;16.00;99.90
23305;DHT22;11821;51.456;8.844;2022-07-04T03:07:07;16.00;99.90
23305;DHT22;11821;51.456;8.844;2022-07-04T03:09:34;16.00;99.90
23305;DHT22;11821;51.456;8.844;2022-07-04T03:12:00;16.00;99.90
23305;DHT22;11821;51.456;8.844;2022-07-04T03:14:26;16.00;99.90
23305;DHT22;11821;51.456;8.844;2022-07-04T03:16:53;15.90;99.90
23305;DHT22;11821;51.456;8.844;2022-07-04T03:19:19;15.80;99.90
23305;DHT22;11821;51.456;8.844;2022-07-04T03:21:45;15.90;99.90
23305;DHT22;11821;51.456;8.844;2022-07-04T03:24:12;15.80;99.90
23305;DHT22;11821;51.456;8.844;2022-07-04T03:26:38;15.80;99.90
23305;DHT22;11821;51.456;8.844;2022-07-04T03:29:04;15.70;99.90
23305;DHT22;11821;51.456;8.844;2022-07-04T03:31:30;15.80;99.90
23305;DHT22;11821;51.456;8.844;2022-07-04T03:33:57;15.80;99.90
23305;DHT22;11821;51.456;8.844;2022-07-04T03:36:23;15.80;99.90
23305;DHT22;11821;51.456;8.844;2022-07-04T03:38:49;15.80;99.90
23305;DHT22;11821;51.456;8.844;2022-07-04T03:41:15;15.80;99.90
23305;DHT22;11821;51.456;8.844;2022-07-04T03:43:42;15.80;99.90
23305;DHT22;11821;51.456;8.844;2022-07-04T03:46:08;15.80;99.90
23305;DHT22;11821;51.456;8.844;2022-07-04T03:48:34;15.70;99.90
23305;DHT22;11821;51.456;8.844;2022-07-04T03:51:02;15.70;99.90
23305;DHT22;11821;51.456;8.844;2022-07-04T03:53:28;15.70;99.90
23305;DHT22;11821;51.456;8.844;2022-07-04T03:55:54;15.70;99.90
23305;DHT22;11821;51.456;8.844;2022-07-04T03:58:20;15.70;99.90
23305;DHT22;11821;51.456;8.844;2022-07-04T04:00:47;15.60;99.90
23305;DHT22;11821;51.456;8.844;2022-07-04T04:03:13;15.60;99.90
23305;DHT22;11821;51.456;8.844;2022-07-04T04:05:58;15.60;99.90
23305;DHT22;11821;51.456;8.844;2022-07-04T04:08:24;15.60;99.90
23305;DHT22;11821;51.456;8.844;2022-07-04T04:10:50;15.50;99.90
23305;DHT22;11821;51.456;8.844;2022-07-04T04:13:19;15.60;99.90
23305;DHT22;11821;51.456;8.844;2022-07-04T04:15:45;15.60;99.90
23305;DHT22;11821;51.456;8.844;2022-07-04T04:18:11;15.70;99.90
23305;DHT22;11821;51.456;8.844;2022-07-04T04:20:38;15.70;99.90
23305;DHT22;11821;51.456;8.844;2022-07-04T04:23:04;15.70;99.90
23305;DHT22;11821;51.456;8.844;2022-07-04T04:25:30;15.80;99.90
23305;DHT22;11821;51.456;8.844;2022-07-04T04:27:57;15.80;99.90
23305;DHT22;11821;51.456;8.844;2022-07-04T04:30:23;15.80;99.90
23305;DHT22;11821;51.456;8.844;2022-07-04T04:32:49;15.80;99.90
23305;DHT22;11821;51.456;8.844;2022-07-04T04:35:15;15.90;99.90
23305;DHT22;11821;51.456;8.844;2022-07-04T04:37:42;16.00;99.90
23305;DHT22;11821;51.456;8.844;2022-07-04T04:40:08;16.00;99.90
23305;DHT22;11821;51.456;8.844;2022-07-04T04:42:35;16.10;99.90
23305;DHT22;11821;51.456;8.844;2022-07-04T04:45:04;16.10;99.90
23305;DHT22;11821;51.456;8.844;2022-07-04T04:47:30;16.20;99.90
23305;DHT22;11821;51.456;8.844;2022-07-04T04:49:57;16.30;99.90
23305;DHT22;11821;51.456;8.844;2022-07-04T04:52:23;16.40;99.90
23305;DHT22;11821;51.456;8.844;2022-07-04T04:54:49;16.30;99.90
23305;DHT22;11821;51.456;8.844;2022-07-04T04:57:16;16.40;99.90
23305;DHT22;11821;51.456;8.844;2022-07-04T04:59:42;16.60;99.90
23305;DHT22;11821;51.456;8.844;2022-07-04T05:02:08;16.70;99.90
23305;DHT22;11821;51.456;8.844;2022-07-04T05:04:35;16.70;99.90
23305;DHT22;11821;51.456;8.844;2022-07-04T05:07:01;16.70;99.90
23305;DHT22;11821;51.456;8.844;2022-07-04T05:09:28;16.90;99.90
23305;DHT22;11821;51.456;8.844;2022-07-04T05:11:54;16.90;99.90
23305;DHT22;11821;51.456;8.844;2022-07-04T05:14:23;17.00;99.90
23305;DHT22;11821;51.456;8.844;2022-07-04T05:16:49;17.00;99.90
23305;DHT22;11821;51.456;8.844;2022-07-04T05:19:16;17.10;99.90
23305;DHT22;11821;51.456;8.844;2022-07-04T05:21:42;17.10;99.90
23305;DHT22;11821;51.456;8.844;2022-07-04T05:24:08;17.20;99.90
23305;DHT22;11821;51.456;8.844;2022-07-04T05:26:37;17.30;99.90
23305;DHT22;11821;51.456;8.844;2022-07-04T05:29:04;17.40;99.90
23305;DHT22;11821;51.456;8.844;2022-07-04T05:31:30;17.50;99.90
23305;DHT22;11821;51.456;8.844;2022-07-04T05:33:57;17.60;99.90
23305;DHT22;11821;51.456;8.844;2022-07-04T05:36:24;17.60;99.90
23305;DHT22;11821;51.456;8.844;2022-07-04T05:38:51;17.70;99.90
23305;DHT22;11821;51.456;8.844;2022-07-04T05:41:17;17.80;99.90
23305;DHT22;11821;51.456;8.844;2022-07-04T05:43:44;17.90;99.90
23305;DHT22;11821;51.456;8.844;2022-07-04T05:46:10;17.80;99.90
23305;DHT22;11821;51.456;8.844;2022-07-04T05:48:36;18.00;99.90
23305;DHT22;11821;51.456;8.844;2022-07-04T05:51:03;18.10;99.90
23305;DHT22;11821;51.456;8.844;2022-07-04T05:53:29;18.20;99.90
23305;DHT22;11821;51.456;8.844;2022-07-04T05:55:56;18.30;99.90
23305;DHT22;11821;51.456;8.844;2022-07-04T05:58:22;18.40;99.90
23305;DHT22;11821;51.456;8.844;2022-07-04T06:00:48;18.50;99.90
23305;DHT22;11821;51.456;8.844;2022-07-04T06:03:14;18.50;99.90
23305;DHT22;11821;51.456;8.844;2022-07-04T06:05:41;18.50;99.90
23305;DHT22;11821;51.456;8.844;2022-07-04T06:08:07;18.50;99.90
23305;DHT22;11821;51.456;8.844;2022-07-04T06:10:33;18.50;99.90
23305;DHT22;11821;51.456;8.844;2022-07-04T06:12:59;18.70;99.90
23305;DHT22;11821;51.456;8.844;2022-07-04T06:15:26;18.70;99.90
23305;DHT22;11821;51.456;8.844;2022-07-04T06:17:52;18.80;99.90
23305;DHT22;11821;51.456;8.844;2022-07-04T06:20:18;18.80;99.90
23305;DHT22;11821;51.456;8.844;2022-07-04T06:22:47;18.90;99.90
23305;DHT22;11821;51.456;8.844;2022-07-04T06:25:16;18.90;99.90
23305;DHT22;11821;51.456;8.844;2022-07-04T06:27:45;18.90;99.90
23305;DHT22;11821;51.456;8.844;2022-07-04T06:30:12;19.00;99.90
23305;DHT22;11821;51.456;8.844;2022-07-04T06:32:52;19.00;99.90
23305;DHT22;11821;51.456;8.844;2022-07-04T06:35:23;19.20;99.90
23305;DHT22;11821;51.456;8.844;2022-07-04T06:38:09;19.30;99.90
23305;DHT22;11821;51.456;8.844;2022-07-04T06:40:37;19.60;99.90
23305;DHT22;11821;51.456;8.844;2022-07-04T06:43:03;19.90;99.90
23305;DHT22;11821;51.456;8.844;2022-07-04T06:45:30;20.10;99.90
23305;DHT22;11821;51.456;8.844;2022-07-04T06:47:57;20.30;99.90
23305;DHT22;11821;51.456;8.844;2022-07-04T06:50:24;20.60;99.90
23305;DHT22;11821;51.456;8.844;2022-07-04T06:52:53;20.80;99.90
23305;DHT22;11821;51.456;8.844;2022-07-04T06:55:19;20.50;99.90
23305;DHT22;11821;51.456;8.844;2022-07-04T06:57:45;20.60;99.90
23305;DHT22;11821;51.456;8.844;2022-07-04T07:00:12;20.60;99.90
23305;DHT22;11821;51.456;8.844;2022-07-04T07:02:38;20.60;99.90
23305;DHT22;11821;51.456;8.844;2022-07-04T07:05:05;20.50;99.90
23305;DHT22;11821;51.456;8.844;2022-07-04T07:07:33;20.40;99.90
23305;DHT22;11821;51.456;8.844;2022-07-04T07:09:59;20.60;99.90
23305;DHT22;11821;51.456;8.844;2022-07-04T07:12:27;21.10;99.90
23305;DHT22;11821;51.456;8.844;2022-07-04T07:14:53;21.60;99.90
23305;DHT22;11821;51.456;8.844;2022-07-04T07:17:20;21.80;99.90
23305;DHT22;11821;51.456;8.844;2022-07-04T07:19:47;22.00;99.90
23305;DHT22;11821;51.456;8.844;2022-07-04T07:22:14;22.20;99.90
23305;DHT22;11821;51.456;8.844;2022-07-04T07:24:41;22.40;99.90
23305;DHT22;11821;51.456;8.844;2022-07-04T07:27:07;22.70;99.70
23305;DHT22;11821;51.456;8.844;2022-07-04T07:29:35;22.60;98.90
23305;DHT22;11821;51.456;8.844;2022-07-04T07:32:02;22.50;99.10
23305;DHT22;11821;51.456;8.844;2022-07-04T07:34:28;22.50;99.20
23305;DHT22;11821;51.456;8.844;2022-07-04T07:36:55;22.50;98.30
23305;DHT22;11821;51.456;8.844;2022-07-04T07:39:22;22.30;98.30
23305;DHT22;11821;51.456;8.844;2022-07-04T07:41:48;21.90;99.40
23305;DHT22;11821;51.456;8.844;2022-07-04T07:44:14;22.20;99.00
23305;DHT22;11821;51.456;8.844;2022-07-04T07:46:41;22.70;98.80
23305;DHT22;11821;51.456;8.844;2022-07-04T07:49:07;22.80;98.00
23305;DHT22;11821;51.456;8.844;2022-07-04T07:51:33;23.30;97.20
23305;DHT22;11821;51.456;8.844;2022-07-04T07:54:00;23.60;96.40
23305;DHT22;11821;51.456;8.844;2022-07-04T07:56:26;23.60;96.50
23305;DHT22;11821;51.456;8.844;2022-07-04T07:58:53;23.30;95.90
23305;DHT22;11821;51.456;8.844;2022-07-04T08:01:19;23.20;96.00
23305;DHT22;11821;51.456;8.844;2022-07-04T08:03:47;23.10;95.80
23305;DHT22;11821;51.456;8.844;2022-07-04T08:06:32;23.20;95.10
23305;DHT22;11821;51.456;8.844;2022-07-04T08:08:59;23.10;95.90
23305;DHT22;11821;51.456;8.844;2022-07-04T08:11:25;23.10;95.40
23305;DHT22;11821;51.456;8.844;2022-07-04T08:13:52;23.70;95.40
23305;DHT22;11821;51.456;8.844;2022-07-04T08:16:18;24.00;92.90
23305;DHT22;11821;51.456;8.844;2022-07-04T08:18:45;24.20;92.80
23305;DHT22;11821;51.456;8.844;2022-07-04T08:21:11;24.30;93.20
23305;DHT22;11821;51.456;8.844;2022-07-04T08:23:40;24.60;92.80
23305;DHT22;11821;51.456;8.844;2022-07-04T08:26:06;24.80;93.00
23305;DHT22;11821;51.456;8.844;2022-07-04T08:28:32;25.30;93.20
23305;DHT22;11821;51.456;8.844;2022-07-04T08:30:59;25.30;92.80
23305;DHT22;11821;51.456;8.844;2022-07-04T08:33:25;25.00;92.60
23305;DHT22;11821;51.456;8.844;2022-07-04T08:35:52;24.50;92.80
23305;DHT22;11821;51.456;8.844;2022-07-04T08:38:19;24.60;92.90
23305;DHT22;11821;51.456;8.844;2022-07-04T08:40:46;24.50;92.30
23305;DHT22;11821;51.456;8.844;2022-07-04T08:43:14;25.10;92.40
23305;DHT22;11821;51.456;8.844;2022-07-04T08:45:41;25.40;91.90
23305;DHT22;11821;51.456;8.844;2022-07-04T08:48:09;25.80;92.00
23305;DHT22;11821;51.456;8.844;2022-07-04T08:50:43;25.70;91.10
23305;DHT22;11821;51.456;8.844;2022-07-04T08:53:11;25.30;90.10
23305;DHT22;11821;51.456;8.844;2022-07-04T08:55:42;25.00;91.20
23305;DHT22;11821;51.456;8.844;2022-07-04T08:58:28;25.50;91.60
23305;DHT22;11821;51.456;8.844;2022-07-04T09:03:26;25.80;91.30
23305;DHT22;11821;51.456;8.844;2022-07-04T09:05:53;25.30;91.80
23305;DHT22;11821;51.456;8.844;2022-07-04T09:08:20;25.10;91.20
23305;DHT22;11821;51.456;8.844;2022-07-04T09:10:50;25.40;90.60
23305;DHT22;11821;51.456;8.844;2022-07-04T09:13:17;25.90;86.70
23305;DHT22;11821;51.456;8.844;2022-07-04T09:15:49;26.10;86.10
23305;DHT22;11821;51.456;8.844;2022-07-04T09:18:31;26.60;86.40
23305;DHT22;11821;51.456;8.844;2022-07-04T09:21:00;26.90;84.50
23305;DHT22;11821;51.456;8.844;2022-07-04T09:23:33;26.60;83.30
23305;DHT22;11821;51.456;8.844;2022-07-04T09:26:14;26.60;85.10
23305;DHT22;11821;51.456;8.844;2022-07-04T09:28:53;26.90;85.40
23305;DHT22;11821;51.456;8.844;2022-07-04T09:31:25;27.20;86.50
23305;DHT22;11821;51.456;8.844;2022-07-04T09:33:52;27.30;83.60
23305;DHT22;11821;51.456;8.844;2022-07-04T09:36:21;27.40;83.10
23305;DHT22;11821;51.456;8.844;2022-07-04T09:44:23;27.50;80.10
23305;DHT22;11821;51.456;8.844;2022-07-04T09:46:50;27.70;81.30
23305;DHT22;11821;51.456;8.844;2022-07-04T09:49:18;28.10;82.80
23305;DHT22;11821;51.456;8.844;2022-07-04T09:51:49;28.60;81.30
23305;DHT22;11821;51.456;8.844;2022-07-04T09:54:23;28.50;83.10
23305;DHT22;11821;51.456;8.844;2022-07-04T09:56:57;28.10;81.50
23305;DHT22;11821;51.456;8.844;2022-07-04T09:59:24;27.70;78.20
23305;DHT22;11821;51.456;8.844;2022-07-04T10:01:51;27.60;78.50
23305;DHT22;11821;51.456;8.844;2022-07-04T10:04:17;28.00;80.00
23305;DHT22;11821;51.456;8.844;2022-07-04T10:06:47;28.30;79.30
23305;DHT22;11821;51.456;8.844;2022-07-04T10:09:17;28.50;82.30
23305;DHT22;11821;51.456;8.844;2022-07-04T10:11:45;28.60;80.70
23305;DHT22;11821;51.456;8.844;2022-07-04T10:14:13;28.70;77.90
23305;DHT22;11821;51.456;8.844;2022-07-04T10:16:40;29.10;79.00
23305;DHT22;11821;51.456;8.844;2022-07-04T10:19:08;29.50;80.00
23305;DHT22;11821;51.456;8.844;2022-07-04T10:21:35;29.40;77.60
23305;DHT22;11821;51.456;8.844;2022-07-04T10:24:02;29.30;80.40
23305;DHT22;11821;51.456;8.844;2022-07-04T10:26:31;29.70;77.20
23305;DHT22;11821;51.456;8.844;2022-07-04T10:28:58;29.70;78.20
23305;DHT22;11821;51.456;8.844;2022-07-04T10:31:26;29.80;76.90
23305;DHT22;11821;51.456;8.844;2022-07-04T10:33:55;30.00;75.40
23305;DHT22;11821;51.456;8.844;2022-07-04T10:36:24;30.10;80.40
23305;DHT22;11821;51.456;8.844;2022-07-04T10:38:56;29.80;77.40
23305;DHT22;11821;51.456;8.844;2022-07-04T10:41:23;29.40;78.30
23305;DHT22;11821;51.456;8.844;2022-07-04T10:43:53;29.80;79.40
23305;DHT22;11821;51.456;8.844;2022-07-04T10:46:56;30.00;81.50
23305;DHT22;11821;51.456;8.844;2022-07-04T10:49:25;30.30;75.80
23305;DHT22;11821;51.456;8.844;2022-07-04T10:54:33;30.50;75.50
23305;DHT22;11821;51.456;8.844;2022-07-04T10:57:21;30.40;74.40
23305;DHT22;11821;51.456;8.844;2022-07-04T11:18:13;30.80;75.30
23305;DHT22;11821;51.456;8.844;2022-07-04T11:20:45;30.70;75.10
23305;DHT22;11821;51.456;8.844;2022-07-04T11:23:15;30.60;73.20
23305;DHT22;11821;51.456;8.844;2022-07-04T11:25:44;30.80;77.40
23305;DHT22;11821;51.456;8.844;2022-07-04T11:28:23;31.10;77.00
23305;DHT22;11821;51.456;8.844;2022-07-04T11:30:54;31.50;74.10
23305;DHT22;11821;51.456;8.844;2022-07-04T11:33:26;31.60;71.90
23305;DHT22;11821;51.456;8.844;2022-07-04T11:36:04;31.70;72.50
23305;DHT22;11821;51.456;8.844;2022-07-04T11:38:44;31.60;72.80
23305;DHT22;11821;51.456;8.844;2022-07-04T11:41:10;31.70;73.00
23305;DHT22;11821;51.456;8.844;2022-07-04T11:43:55;31.70;75.30
23305;DHT22;11821;51.456;8.844;2022-07-04T11:46:40;31.20;70.40
23305;DHT22;11821;51.456;8.844;2022-07-04T11:49:12;31.10;74.60
23305;DHT22;11821;51.456;8.844;2022-07-04T11:51:43;31.30;75.00
23305;DHT22;11821;51.456;8.844;2022-07-04T11:54:10;31.60;72.60
23305;DHT22;11821;51.456;8.844;2022-07-04T11:56:36;32.00;74.20
23305;DHT22;11821;51.456;8.844;2022-07-04T11:59:11;32.20;72.10
23305;DHT22;11821;51.456;8.844;2022-07-04T12:01:38;32.40;76.40
23305;DHT22;11821;51.456;8.844;2022-07-04T12:04:18;32.20;74.30
23305;DHT22;11821;51.456;8.844;2022-07-04T12:06:47;32.30;70.90
23305;DHT22;11821;51.456;8.844;2022-07-04T12:09:15;32.00;70.90
23305;DHT22;11821;51.456;8.844;2022-07-04T12:12:04;32.20;71.50
23305;DHT22;11821;51.456;8.844;2022-07-04T12:14:31;32.40;69.60
23305;DHT22;11821;51.456;8.844;2022-07-04T12:17:12;31.70;72.20
23305;DHT22;11821;51.456;8.844;2022-07-04T12:19:57;31.40;73.80
23305;DHT22;11821;51.456;8.844;2022-07-04T12:22:31;31.80;74.30
23305;DHT22;11821;51.456;8.844;2022-07-04T12:24:59;31.90;71.40
23305;DHT22;11821;51.456;8.844;2022-07-04T12:27:26;31.50;72.60
23305;DHT22;11821;51.456;8.844;2022-07-04T12:29:54;31.40;74.10
23305;DHT22;11821;51.456;8.844;2022-07-04T12:32:21;31.70;73.70
23305;DHT22;11821;51.456;8.844;2022-07-04T12:34:47;31.80;73.60
23305;DHT22;11821;51.456;8.844;2022-07-04T12:37:15;31.80;73.20
23305;DHT22;11821;51.456;8.844;2022-07-04T12:39:43;31.90;75.80
23305;DHT22;11821;51.456;8.844;2022-07-04T12:44:43;31.30;72.30
23305;DHT22;11821;51.456;8.844;2022-07-04T12:47:11;30.90;72.90
23305;DHT22;11821;51.456;8.844;2022-07-04T12:49:41;30.90;75.20
23305;DHT22;11821;51.456;8.844;2022-07-04T12:52:14;31.30;71.80
23305;DHT22;11821;51.456;8.844;2022-07-04T12:54:42;31.70;72.00
23305;DHT22;11821;51.456;8.844;2022-07-04T12:57:13;31.70;72.20
23305;DHT22;11821;51.456;8.844;2022-07-04T12:59:41;32.10;70.50
23305;DHT22;11821;51.456;8.844;2022-07-04T13:02:09;32.10;71.80
23305;DHT22;11821;51.456;8.844;2022-07-04T13:04:36;31.60;71.20
23305;DHT22;11821;51.456;8.844;2022-07-04T13:07:16;31.50;73.50
23305;DHT22;11821;51.456;8.844;2022-07-04T13:09:45;32.20;74.20
23305;DHT22;11821;51.456;8.844;2022-07-04T13:12:15;32.30;71.60
23305;DHT22;11821;51.456;8.844;2022-07-04T13:14:58;32.00;74.00
23305;DHT22;11821;51.456;8.844;2022-07-04T13:17:26;31.80;72.80
23305;DHT22;11821;51.456;8.844;2022-07-04T13:19:52;31.30;70.10
23305;DHT22;11821;51.456;8.844;2022-07-04T13:22:22;31.20;71.10
23305;DHT22;11821;51.456;8.844;2022-07-04T13:24:50;31.00;71.00
23305;DHT22;11821;51.456;8.844;2022-07-04T13:27:17;31.30;71.80
23305;DHT22;11821;51.456;8.844;2022-07-04T13:29:43;31.30;70.10
23305;DHT22;11821;51.456;8.844;2022-07-04T13:32:10;31.30;71.00
23305;DHT22;11821;51.456;8.844;2022-07-04T13:34:36;31.10;70.70
23305;DHT22;11821;51.456;8.844;2022-07-04T13:37:03;31.00;70.90
23305;DHT22;11821;51.456;8.844;2022-07-04T13:39:31;31.20;71.20
23305;DHT22;11821;51.456;8.844;2022-07-04T13:41:57;31.20;70.00
23305;DHT22;11821;51.456;8.844;2022-07-04T13:44:24;30.80;71.10
23305;DHT22;11821;51.456;8.844;2022-07-04T13:46:50;31.10;75.80
23305;DHT22;11821;51.456;8.844;2022-07-04T13:49:16;31.50;71.80
23305;DHT22;11821;51.456;8.844;2022-07-04T13:51:43;31.70;68.20
23305;DHT22;11821;51.456;8.844;2022-07-04T13:54:09;31.70;70.30
23305;DHT22;11821;51.456;8.844;2022-07-04T13:56:35;31.80;69.20
23305;DHT22;11821;51.456;8.844;2022-07-04T13:59:02;32.10;74.20
23305;DHT22;11821;51.456;8.844;2022-07-04T14:01:29;31.90;68.20
23305;DHT22;11821;51.456;8.844;2022-07-04T14:03:55;31.90;67.90
23305;DHT22;11821;51.456;8.844;2022-07-04T14:06:22;32.00;68.20
23305;DHT22;11821;51.456;8.844;2022-07-04T14:08:48;32.10;69.20
23305;DHT22;11821;51.456;8.844;2022-07-04T14:11:14;32.40;69.00
23305;DHT22;11821;51.456;8.844;2022-07-04T14:13:40;32.10;67.80
23305;DHT22;11821;51.456;8.844;2022-07-04T14:16:07;31.70;67.40
23305;DHT22;11821;51.456;8.844;2022-07-04T14:18:34;31.40;69.50
23305;DHT22;11821;51.456;8.844;2022-07-04T14:21:00;31.70;72.70
23305;DHT22;11821;51.456;8.844;2022-07-04T14:23:26;31.90;68.30
23305;DHT22;11821;51.456;8.844;2022-07-04T14:26:13;32.00;69.00
23305;DHT22;11821;51.456;8.844;2022-07-04T14:28:40;32.30;67.80
23305;DHT22;11821;51.456;8.844;2022-07-04T14:31:06;32.20;69.60
23305;DHT22;11821;51.456;8.844;2022-07-04T14:33:33;32.30;66.90
23305;DHT22;11821;51.456;8.844;2022-07-04T14:36:01;32.20;68.60
23305;DHT22;11821;51.456;8.844;2022-07-04T14:38:27;31.90;66.30
23305;DHT22;11821;51.456;8.844;2022-07-04T14:40:54;32.00;68.50
23305;DHT22;11821;51.456;8.844;2022-07-04T14:43:20;32.30;67.40
23305;DHT22;11821;51.456;8.844;2022-07-04T14:45:46;31.90;70.30
23305;DHT22;11821;51.456;8.844;2022-07-04T14:48:16;32.20;70.00
23305;DHT22;11821;51.456;8.844;2022-07-04T14:50:42;32.10;68.70
23305;DHT22;11821;51.456;8.844;2022-07-04T14:53:09;31.90;70.70
23305;DHT22;11821;51.456;8.844;2022-07-04T14:55:35;32.00;70.30
23305;DHT22;11821;51.456;8.844;2022-07-04T14:58:01;32.40;70.90
23305;DHT22;11821;51.456;8.844;2022-07-04T15:00:28;32.50;67.20
23305;DHT22;11821;51.456;8.844;2022-07-04T15:02:54;32.60;67.70
23305;DHT22;11821;51.456;8.844;2022-07-04T15:05:20;32.40;71.50
23305;DHT22;11821;51.456;8.844;2022-07-04T15:07:46;31.80;68.50
23305;DHT22;11821;51.456;8.844;2022-07-04T15:10:13;31.80;68.30
23305;DHT22;11821;51.456;8.844;2022-07-04T15:12:39;31.90;68.20
23305;DHT22;11821;51.456;8.844;2022-07-04T15:15:07;32.00;69.40
23305;DHT22;11821;51.456;8.844;2022-07-04T15:17:33;32.00;68.60
23305;DHT22;11821;51.456;8.844;2022-07-04T15:20:01;31.90;68.90
23305;DHT22;11821;51.456;8.844;2022-07-04T15:22:46;32.00;68.60
23305;DHT22;11821;51.456;8.844;2022-07-04T15:25:30;31.90;69.10
23305;DHT22;11821;51.456;8.844;2022-07-04T15:27:57;31.90;72.80
23305;DHT22;11821;51.456;8.844;2022-07-04T15:30:23;32.00;67.00
23305;DHT22;11821;51.456;8.844;2022-07-04T15:32:49;31.80;71.50
23305;DHT22;11821;51.456;8.844;2022-07-04T15:35:15;31.90;71.20
23305;DHT22;11821;51.456;8.844;2022-07-04T15:37:42;31.90;69.50
23305;DHT22;11821;51.456;8.844;2022-07-04T15:40:08;31.60;68.20
23305;DHT22;11821;51.456;8.844;2022-07-04T15:42:35;31.40;67.90
23305;DHT22;11821;51.456;8.844;2022-07-04T15:45:01;31.30;68.60
23305;DHT22;11821;51.456;8.844;2022-07-04T15:47:27;31.20;69.90
23305;DHT22;11821;51.456;8.844;2022-07-04T15:49:53;31.40;71.80
23305;DHT22;11821;51.456;8.844;2022-07-04T15:52:19;31.50;68.70
23305;DHT22;11821;51.456;8.844;2022-07-04T15:54:49;31.30;70.90
23305;DHT22;11821;51.456;8.844;2022-07-04T15:57:15;31.50;68.70
23305;DHT22;11821;51.456;8.844;2022-07-04T15:59:41;31.40;70.20
23305;DHT22;11821;51.456;8.844;2022-07-04T16:02:07;31.30;73.60
23305;DHT22;11821;51.456;8.844;2022-07-04T16:04:34;31.20;69.20
23305;DHT22;11821;51.456;8.844;2022-07-04T16:07:00;31.30;70.40